Time;durP1;ratioP1;P1;durP2;ratioP2;P2;SDS_P1;SDS_P2;PMS_P1;PMS_P2;Temp;Humidity;BMP_temperature;BMP_pressure;BME280_temperature;BME280_humidity;BME280_pressure;Samples;Min_cycle;Max_cycle;Signal;HPM_P1;HPM_P2
2022/03/22 00:02:15;;;;;;;46.35;36.53;;;;;;;7.85;95.29;102855.97;5064630;28;20032;-69
2022/03/22 00:04:41;;;;;;;49.20;36.55;;;;;;;7.76;95.93;102864.31;5061958;28;20124;-69
2022/03/22 00:07:07;;;;;;;45.95;34.90;;;;;;;7.87;96.85;102869.19;5063871;28;20016;-69
2022/03/22 00:09:33;;;;;;;46.65;35.55;;;;;;;7.84;97.52;102872.56;5062591;28;20028;-68
2022/03/22 00:11:58;;;;;;;48.45;35.95;;;;;;;7.82;97.32;102872.50;5062747;28;20031;-68
2022/03/22 00:14:24;;;;;;;43.88;34.15;;;;;;;7.83;96.08;102866.41;5064051;28;20099;-68
2022/03/22 00:16:49;;;;;;;48.22;35.72;;;;;;;7.79;96.46;102866.16;5061313;28;20491;-70
2022/03/22 00:19:14;;;;;;;48.25;36.92;;;;;;;7.72;96.55;102869.34;5064768;28;20482;-68
2022/03/22 00:21:40;;;;;;;50.25;36.50;;;;;;;7.64;97.92;102866.34;5061753;28;20463;-70
2022/03/22 00:24:05;;;;;;;49.63;37.35;;;;;;;7.66;99.67;102873.50;5063617;28;20380;-68
2022/03/22 00:26:31;;;;;;;50.17;37.17;;;;;;;7.59;98.95;102873.13;5062537;28;20556;-68
2022/03/22 00:28:57;;;;;;;48.72;36.92;;;;;;;7.47;99.73;102863.81;5062070;28;20033;-68
2022/03/22 00:31:23;;;;;;;50.13;38.30;;;;;;;7.47;100.00;102870.78;5063707;28;20067;-69
2022/03/22 00:33:48;;;;;;;50.50;38.83;;;;;;;7.47;100.00;102870.78;5061004;28;20053;-69
2022/03/22 00:36:13;;;;;;;50.17;38.13;;;;;;;7.40;100.00;102881.84;5056881;28;20060;-67
2022/03/22 00:38:40;;;;;;;51.85;39.30;;;;;;;7.37;100.00;102881.66;5063908;28;20380;-64
2022/03/22 00:41:06;;;;;;;46.53;35.08;;;;;;;7.33;100.00;102884.16;5062083;28;20041;-66
2022/03/22 00:43:34;;;;;;;54.83;40.00;;;;;;;7.21;100.00;102886.19;5062519;28;20028;-68
2022/03/22 00:46:00;;;;;;;48.47;37.08;;;;;;;7.17;100.00;102881.59;5045631;28;20033;-68
2022/03/22 00:48:25;;;;;;;53.88;39.88;;;;;;;7.09;100.00;102885.53;5061568;28;20047;-70
2022/03/22 00:50:53;;;;;;;50.42;39.17;;;;;;;7.11;100.00;102881.28;5063968;28;20040;-68
2022/03/22 00:53:19;;;;;;;51.38;39.17;;;;;;;7.15;100.00;102878.00;5060992;28;20032;-68
2022/03/22 00:55:45;;;;;;;46.25;35.72;;;;;;;7.11;100.00;102878.66;5064003;28;20032;-68
2022/03/22 00:58:11;;;;;;;51.05;37.05;;;;;;;7.03;100.00;102882.59;5061051;28;20155;-69
2022/03/22 01:00:37;;;;;;;46.80;35.42;;;;;;;6.97;100.00;102881.47;5063128;28;20540;-68
2022/03/22 01:03:05;;;;;;;47.50;36.80;;;;;;;6.88;100.00;102875.72;5062028;28;20032;-69
2022/03/22 01:05:31;;;;;;;46.83;36.17;;;;;;;6.88;100.00;102888.88;5062251;28;20088;-68
2022/03/22 01:08:05;;;;;;;47.42;36.35;;;;;;;6.74;100.00;102884.63;5063043;28;20537;-68
2022/03/22 01:10:34;;;;;;;46.92;36.55;;;;;;;6.90;100.00;102884.63;5062152;28;20139;-68
2022/03/22 01:12:59;;;;;;;49.97;36.47;;;;;;;6.88;100.00;102883.63;5062317;28;20025;-69
2022/03/22 01:15:32;;;;;;;48.72;36.80;;;;;;;6.89;100.00;102884.53;5061479;28;20021;-68
2022/03/22 01:17:58;;;;;;;;;;;;;;;6.93;100.00;102882.13;5063593;28;20024;-68
2022/03/22 01:20:26;;;;;;;48.50;37.00;;;;;;;6.81;100.00;102881.50;5061179;28;20008;-68
2022/03/22 01:22:53;;;;;;;47.05;35.95;;;;;;;6.70;100.00;102882.63;5063577;28;20036;-68
2022/03/22 01:25:27;;;;;;;46.85;34.75;;;;;;;6.67;100.00;102887.75;5060298;28;20052;-67
2022/03/22 01:27:54;;;;;;;45.28;35.03;;;;;;;6.63;100.00;102884.94;5063365;28;20078;-67
2022/03/22 01:30:22;;;;;;;50.05;36.60;;;;;;;6.43;100.00;102878.63;5060561;28;20033;-67
2022/03/22 01:32:52;;;;;;;48.95;37.65;;;;;;;6.39;100.00;102881.00;5063991;28;20024;-66
2022/03/22 01:35:19;;;;;;;49.63;38.78;;;;;;;6.28;100.00;102888.31;5057175;28;20036;-66
2022/03/22 01:37:47;;;;;;;51.70;38.25;;;;;;;6.34;100.00;102877.25;5056202;28;20029;-66
2022/03/22 01:40:14;;;;;;;50.50;38.40;;;;;;;6.26;100.00;102890.88;5063560;28;20024;-66
2022/03/22 01:42:39;;;;;;;50.42;38.83;;;;;;;6.17;100.00;102890.34;5061022;28;20032;-65
2022/03/22 01:45:07;;;;;;;50.63;37.80;;;;;;;6.33;100.00;102885.94;5062343;28;20070;-65
2022/03/22 01:47:35;;;;;;;48.55;37.42;;;;;;;6.39;100.00;102884.56;5061930;28;20024;-65
2022/03/22 01:50:01;;;;;;;48.72;37.40;;;;;;;6.29;100.00;102890.09;5061953;28;20063;-65
2022/03/22 01:52:26;;;;;;;48.67;37.83;;;;;;;6.39;100.00;102884.56;5062534;28;20448;-65
2022/03/22 01:54:55;;;;;;;50.97;37.97;;;;;;;6.51;100.00;102881.69;5060711;28;20025;-65
2022/03/22 01:57:22;;;;;;;49.78;38.33;;;;;;;6.44;100.00;102884.81;5063485;28;20608;-66
2022/03/22 01:59:49;;;;;;;50.17;37.15;;;;;;;6.45;100.00;102882.25;5060054;28;20375;-65
2022/03/22 02:07:45;;;;;;;47.50;35.67;;;;;;;6.34;100.00;102875.50;5063050;28;20032;-66
2022/03/22 02:10:10;;;;;;;50.38;35.60;;;;;;;6.36;100.00;102878.22;5066563;28;20032;-65
2022/03/22 02:12:36;;;;;;;48.92;36.92;;;;;;;6.27;100.00;102876.00;5064830;28;20029;-66
2022/03/22 02:15:01;;;;;;;48.40;35.85;;;;;;;6.19;100.00;102869.41;5065179;28;20029;-66
2022/03/22 02:17:27;;;;;;;46.47;35.28;;;;;;;6.24;100.00;102867.97;5065907;28;20024;-66
2022/03/22 02:19:53;;;;;;;49.17;37.30;;;;;;;6.04;100.00;102864.22;5063689;28;20074;-66
2022/03/22 02:22:22;;;;;;;47.63;36.05;;;;;;;5.95;100.00;102869.84;5067135;28;20029;-65
2022/03/22 02:24:47;;;;;;;47.25;35.88;;;;;;;6.14;100.00;102863.91;5059488;28;20132;-66
2022/03/22 02:27:13;;;;;;;46.85;35.78;;;;;;;6.15;100.00;102870.09;5066697;28;20158;-66
2022/03/22 02:29:38;;;;;;;48.00;35.90;;;;;;;6.15;100.00;102865.72;5064537;28;20025;-65
2022/03/22 02:32:05;;;;;;;46.35;35.50;;;;;;;6.07;100.00;102861.78;5064921;28;20102;-65
2022/03/22 02:34:31;;;;;;;45.70;35.03;;;;;;;5.98;100.00;102872.69;5064993;28;20020;-64
2022/03/22 02:36:59;;;;;;;46.97;35.72;;;;;;;6.03;100.00;102872.91;5064147;28;20025;-65
2022/03/22 02:39:25;;;;;;;47.15;36.00;;;;;;;5.92;100.00;102865.31;5047641;28;20594;-65
2022/03/22 02:41:51;;;;;;;45.65;34.38;;;;;;;5.85;100.00;102871.03;5063096;28;20029;-65
2022/03/22 02:44:18;;;;;;;47.47;36.83;;;;;;;5.73;100.00;102871.25;5066525;28;20031;-68
2022/03/22 02:46:43;;;;;;;44.97;34.80;;;;;;;5.68;100.00;102869.19;5063229;28;20025;-68
2022/03/22 02:49:09;;;;;;;45.50;35.08;;;;;;;5.82;100.00;102873.50;5065359;28;20349;-65
2022/03/22 02:51:34;;;;;;;46.20;34.45;;;;;;;5.84;100.00;102871.88;5064390;28;20117;-65
2022/03/22 02:54:00;;;;;;;47.58;36.50;;;;;;;5.91;100.00;102871.41;5064051;28;20025;-66
2022/03/22 02:56:25;;;;;;;45.97;36.25;;;;;;;5.89;100.00;102873.03;5065496;28;20050;-67
2022/03/22 02:58:50;;;;;;;45.53;34.95;;;;;;;5.83;100.00;102872.69;5062941;28;20025;-66
2022/03/22 03:01:16;;;;;;;48.65;37.15;;;;;;;5.88;100.00;102871.25;5065923;28;20352;-68
2022/03/22 03:03:42;;;;;;;49.80;35.53;;;;;;;5.74;100.00;102878.34;5063093;28;20021;-67
2022/03/22 03:06:07;;;;;;;44.38;33.13;;;;;;;5.71;100.00;102878.16;5046783;28;20036;-66
2022/03/22 03:08:33;;;;;;;45.58;34.85;;;;;;;5.65;100.00;102874.28;5064082;28;20475;-68
2022/03/22 03:10:58;;;;;;;45.67;34.97;;;;;;;5.56;100.00;102878.19;5063647;28;20104;-67
2022/03/22 03:13:24;;;;;;;47.65;35.67;;;;;;;5.51;100.00;102879.63;5065362;28;20056;-69
2022/03/22 03:15:52;;;;;;;49.63;35.88;;;;;;;5.37;100.00;102884.09;5062316;28;20080;-65
2022/03/22 03:18:19;;;;;;;46.97;34.70;;;;;;;5.34;100.00;102880.38;5058291;28;20132;-65
2022/03/22 03:20:44;;;;;;;47.17;34.72;;;;;;;5.32;100.00;102876.78;5065581;28;20074;-65
2022/03/22 03:23:10;;;;;;;48.15;36.10;;;;;;;5.28;100.00;102882.66;5062836;28;20419;-65
2022/03/22 03:25:36;;;;;;;45.35;34.65;;;;;;;5.21;100.00;102879.69;5064063;28;20081;-68
2022/03/22 03:28:02;;;;;;;45.63;34.03;;;;;;;5.23;100.00;102880.66;5063963;28;20032;-65
2022/03/22 03:30:27;;;;;;;45.35;33.67;;;;;;;5.19;100.00;102876.03;5062847;28;20421;-65
2022/03/22 03:32:52;;;;;;;46.70;34.70;;;;;;;5.22;100.00;102881.47;5065263;28;20024;-68
2022/03/22 03:35:18;;;;;;;46.97;34.60;;;;;;;5.14;100.00;102888.00;5061975;28;20033;-67
2022/03/22 03:37:44;;;;;;;46.50;35.47;;;;;;;5.11;100.00;102887.81;5064899;28;20060;-69
2022/03/22 03:40:10;;;;;;;46.30;34.90;;;;;;;5.04;100.00;102891.78;5062749;28;20024;-68
2022/03/22 03:42:42;;;;;;;45.25;34.70;;;;;;;4.98;100.00;102896.66;5063667;28;20043;-68
2022/03/22 03:47:55;;;;;;;47.40;33.53;;;;;;;4.92;100.00;102906.75;5059244;28;20102;-67
2022/03/22 03:50:21;;;;;;;46.58;34.35;;;;;;;4.91;100.00;102906.66;5065239;28;20103;-68
2022/03/22 03:52:47;;;;;;;46.15;34.92;;;;;;;4.89;100.00;102904.88;5061729;28;20139;-67
2022/03/22 03:55:12;;;;;;;46.42;34.67;;;;;;;4.86;100.00;102903.78;5064477;28;20032;-67
2022/03/22 03:57:38;;;;;;;48.00;35.22;;;;;;;4.76;100.00;102898.78;5062914;28;20020;-68
2022/03/22 04:00:07;;;;;;;47.03;35.38;;;;;;;4.63;100.00;102910.22;5063321;28;20432;-67
2022/03/22 04:02:32;;;;;;;46.60;35.88;;;;;;;4.65;100.00;102912.13;5063166;28;20032;-67
2022/03/22 04:04:58;;;;;;;48.50;35.70;;;;;;;4.60;100.00;102910.97;5062614;28;20040;-68
2022/03/22 04:07:25;;;;;;;46.88;34.80;;;;;;;4.52;100.00;102905.22;5064788;28;20024;-67
2022/03/22 04:09:51;;;;;;;45.25;34.50;;;;;;;4.46;100.00;102915.34;5061544;28;20040;-68
2022/03/22 04:12:19;;;;;;;46.75;35.35;;;;;;;4.40;100.00;102914.97;5057433;28;20483;-67
2022/03/22 04:14:44;;;;;;;44.47;32.92;;;;;;;4.40;100.00;102914.97;5064375;28;20482;-69
2022/03/22 04:17:10;;;;;;;47.33;34.25;;;;;;;4.30;100.00;102912.59;5061951;28;20025;-65
2022/03/22 04:19:36;;;;;;;47.63;34.67;;;;;;;4.46;100.00;102914.44;5063318;28;20036;-65
2022/03/22 04:22:08;;;;;;;49.35;35.20;;;;;;;4.33;100.00;102911.03;5063061;28;20081;-65
2022/03/22 04:24:33;;;;;;;45.83;34.55;;;;;;;4.36;100.00;102907.72;5062620;28;20032;-65
2022/03/22 04:32:41;;;;;;;45.72;34.78;;;;;;;4.31;100.00;102910.06;5063727;28;20028;-65
2022/03/22 04:32:47;;;;;;;44.47;34.08;;;;;;;4.33;100.00;102920.63;5060305;28;20072;-65
2022/03/22 04:35:17;;;;;;;47.85;37.53;;;;;;;4.28;100.00;102919.41;5061660;28;20017;-65
2022/03/22 04:37:43;;;;;;;48.40;36.85;;;;;;;4.34;100.00;102914.59;5063933;28;20464;-65
2022/03/22 04:40:10;;;;;;;49.15;37.53;;;;;;;4.36;100.00;102911.22;5061893;28;20074;-64
2022/03/22 04:42:35;;;;;;;47.22;36.65;;;;;;;4.36;100.00;102908.59;5062887;28;20384;-65
2022/03/22 04:45:01;;;;;;;46.92;36.72;;;;;;;4.33;100.00;102904.91;5062929;28;20035;-65
2022/03/22 04:47:27;;;;;;;47.28;36.22;;;;;;;4.36;100.00;102912.97;5061456;28;20081;-65
2022/03/22 04:49:53;;;;;;;46.95;36.55;;;;;;;4.29;100.00;102916.00;5064384;28;20024;-65
2022/03/22 04:57:46;;;;;;;45.75;33.33;;;;;;;4.16;100.00;102925.69;5056715;28;20107;-65
2022/03/22 05:00:12;;;;;;;45.75;34.10;;;;;;;4.11;100.00;102927.09;5063403;28;20462;-66
2022/03/22 05:02:38;;;;;;;45.38;33.75;;;;;;;4.13;100.00;102927.22;5061993;28;20063;-66
2022/03/22 05:05:03;;;;;;;44.40;33.58;;;;;;;4.06;100.00;102922.38;5062373;28;20529;-68
2022/03/22 05:07:29;;;;;;;44.38;33.47;;;;;;;3.97;100.00;102934.06;5063120;28;20102;-67
2022/03/22 05:09:54;;;;;;;43.25;32.35;;;;;;;4.00;100.00;102930.75;5061046;28;20021;-67
2022/03/22 05:12:20;;;;;;;42.63;32.00;;;;;;;4.05;100.00;102933.66;5064016;28;20065;-68
2022/03/22 05:14:50;;;;;;;45.97;33.42;;;;;;;3.97;100.00;102938.41;5060459;28;20028;-67
2022/03/22 05:17:21;;;;;;;47.45;34.22;;;;;;;4.06;100.00;102933.75;5064188;28;20099;-68
2022/03/22 05:19:46;;;;;;;46.45;34.28;;;;;;;4.01;100.00;102936.06;5060588;28;20032;-68
2022/03/22 05:22:11;;;;;;;47.40;34.88;;;;;;;3.98;100.00;102941.13;5063119;28;20418;-67
2022/03/22 05:24:37;;;;;;;47.60;33.97;;;;;;;4.00;100.00;102947.38;5061814;28;20016;-66
2022/03/22 05:27:02;;;;;;;44.20;33.67;;;;;;;3.98;100.00;102946.34;5061826;28;20040;-69
2022/03/22 05:29:29;;;;;;;46.58;33.40;;;;;;;3.96;100.00;102957.53;5062787;28;20086;-67
2022/03/22 05:31:54;;;;;;;45.13;32.65;;;;;;;3.94;100.00;102951.28;5042917;28;20456;-69
2022/03/22 05:34:19;;;;;;;44.53;33.03;;;;;;;3.89;100.00;102950.06;5063829;28;20020;-66
2022/03/22 05:36:45;;;;;;;45.10;32.92;;;;;;;3.88;100.00;102957.03;5060794;28;20032;-67
2022/03/22 05:39:10;;;;;;;46.25;33.38;;;;;;;3.87;100.00;102954.31;5062993;28;20029;-67
2022/03/22 05:41:35;;;;;;;44.67;32.25;;;;;;;3.91;100.00;102953.72;5064230;28;20038;-66
2022/03/22 05:44:01;;;;;;;44.53;33.35;;;;;;;3.84;100.00;102958.56;5065503;28;20033;-67
2022/03/22 05:46:26;;;;;;;45.45;33.30;;;;;;;3.80;100.00;102959.16;5066703;28;20024;-68
2022/03/22 05:48:52;;;;;;;47.55;33.15;;;;;;;3.88;100.00;102957.03;5063894;28;20021;-69
2022/03/22 05:51:17;;;;;;;47.63;33.17;;;;;;;3.86;100.00;102957.72;5060024;28;20016;-68
2022/03/22 05:53:44;;;;;;;47.05;32.58;;;;;;;3.88;100.00;102953.53;5066737;28;20059;-69
2022/03/22 05:56:10;;;;;;;47.33;32.70;;;;;;;3.95;100.00;102956.63;5064685;28;20033;-70
2022/03/22 05:58:36;;;;;;;47.78;34.75;;;;;;;4.03;100.00;102956.22;5047861;28;20083;-69
2022/03/22 06:01:01;;;;;;;45.88;32.65;;;;;;;4.05;100.00;102962.44;5065590;28;20025;-70
2022/03/22 06:03:27;;;;;;;49.03;34.47;;;;;;;4.16;100.00;102962.31;5064354;28;20112;-69
2022/03/22 06:05:52;;;;;;;43.30;33.05;;;;;;;4.13;100.00;102966.47;5067489;28;20020;-68
2022/03/22 06:08:19;;;;;;;45.55;33.85;;;;;;;4.12;100.00;102962.97;5058214;28;20086;-68
2022/03/22 06:10:45;;;;;;;49.35;34.33;;;;;;;4.16;100.00;102962.31;5055577;28;20099;-69
2022/03/22 06:13:10;;;;;;;43.88;32.70;;;;;;;4.22;100.00;102968.78;5055258;28;20124;-69
2022/03/22 06:15:36;;;;;;;46.63;33.70;;;;;;;4.29;100.00;102968.38;5057356;28;20116;-68
2022/03/22 06:18:03;;;;;;;47.70;34.08;;;;;;;4.35;100.00;102976.59;5054993;28;20025;-68
2022/03/22 06:20:34;;;;;;;47.58;34.22;;;;;;;4.44;100.00;102973.66;5049865;28;20028;-69
2022/03/22 06:23:01;;;;;;;46.13;33.80;;;;;;;4.50;100.00;102980.22;5049500;28;20028;-67
2022/03/22 06:25:27;;;;;;;46.97;34.42;;;;;;;4.65;100.00;102976.75;5055202;28;20381;-69
2022/03/22 06:27:54;;;;;;;47.55;33.75;;;;;;;4.73;100.00;102978.13;5035889;28;20383;-68
2022/03/22 06:30:21;;;;;;;44.38;33.33;;;;;;;4.82;100.00;102983.94;5056379;28;20523;-70
2022/03/22 06:32:51;;;;;;;48.50;33.42;;;;;;;4.91;100.00;102978.38;5053522;28;20036;-67
2022/03/22 06:35:23;;;;;;;46.08;32.75;;;;;;;5.09;100.00;102975.94;5054440;28;20368;-68
2022/03/22 06:37:49;;;;;;;45.78;32.70;;;;;;;5.16;100.00;102978.13;5057650;28;20388;-68
2022/03/22 06:40:17;;;;;;;47.13;34.85;;;;;;;5.21;100.00;102979.34;5054494;28;20108;-68
2022/03/22 06:42:43;;;;;;;49.05;35.35;;;;;;;5.39;100.00;102982.16;5056747;28;20024;-67
2022/03/22 06:45:10;;;;;;;47.45;33.67;;;;;;;5.54;100.00;102983.88;5057475;28;20039;-68
2022/03/22 06:47:37;;;;;;;47.50;34.40;;;;;;;5.65;100.00;102976.63;5059188;28;20107;-68
2022/03/22 06:50:03;;;;;;;46.30;33.72;;;;;;;5.82;100.00;102980.22;5053896;28;20052;-67
2022/03/22 06:52:29;;;;;;;47.20;32.97;;;;;;;6.01;100.00;102983.13;5053810;28;20148;-69
2022/03/22 06:54:54;;;;;;;45.47;32.50;;;;;;;6.19;100.00;102987.59;5056148;28;20540;-68
2022/03/22 06:57:19;;;;;;;46.58;34.22;;;;;;;6.30;100.00;102988.22;5054862;28;20035;-67
2022/03/22 06:59:45;;;;;;;44.92;33.58;;;;;;;6.41;100.00;102992.38;5054033;28;20056;-67
2022/03/22 07:02:11;;;;;;;46.08;33.33;;;;;;;6.54;100.00;102996.53;5048172;28;20041;-68
2022/03/22 07:04:36;;;;;;;44.33;33.03;;;;;;;6.63;100.00;102992.72;5056475;28;20116;-67
2022/03/22 07:07:02;;;;;;;45.10;32.65;;;;;;;6.73;100.00;102994.13;5056043;28;20101;-66
2022/03/22 07:09:28;;;;;;;45.65;33.55;;;;;;;6.85;100.00;102991.25;5055850;28;20183;-67
2022/03/22 07:11:55;;;;;;;46.15;32.63;;;;;;;6.94;100.00;102994.38;5052887;28;20490;-67
2022/03/22 07:14:26;;;;;;;44.20;32.42;;;;;;;7.09;100.00;102998.63;5052381;28;20078;-68
2022/03/22 07:16:51;;;;;;;44.22;32.75;;;;;;;7.20;100.00;103001.84;5054611;28;20126;-66
2022/03/22 07:19:18;;;;;;;45.05;32.53;;;;;;;7.31;100.00;103001.59;5052466;28;20483;-67
2022/03/22 07:21:45;;;;;;;47.22;32.22;;;;;;;7.45;100.00;102997.00;5054815;28;20476;-67
2022/03/22 07:24:12;;;;;;;44.08;32.75;;;;;;;7.59;100.00;103003.00;5054821;28;20036;-67
2022/03/22 07:26:38;;;;;;;44.28;31.50;;;;;;;7.72;100.00;102998.34;5034534;28;20369;-68
2022/03/22 07:29:04;;;;;;;43.90;31.30;;;;;;;7.87;100.00;103001.75;5057268;28;20400;-67
2022/03/22 07:31:30;;;;;;;44.70;32.20;;;;;;;8.01;100.00;103005.09;5055347;28;20028;-66
2022/03/22 07:33:56;;;;;;;42.70;31.65;;;;;;;8.18;100.00;103009.44;5055350;28;20033;-68
2022/03/22 07:36:21;;;;;;;41.92;31.05;;;;;;;8.34;100.00;103002.25;5054174;28;20379;-68
2022/03/22 07:38:47;;;;;;;42.30;29.73;;;;;;;8.55;100.00;103005.06;5057762;28;20090;-66
2022/03/22 07:41:13;;;;;;;41.67;29.70;;;;;;;8.75;100.00;103003.34;5055836;28;20356;-66
2022/03/22 07:43:40;;;;;;;40.92;29.77;;;;;;;8.93;100.00;103007.66;5056089;28;20057;-70
2022/03/22 07:46:06;;;;;;;41.28;30.52;;;;;;;9.14;100.00;103003.34;5033327;28;20063;-72
2022/03/22 07:48:31;;;;;;;45.03;30.08;;;;;;;9.36;100.00;103007.84;5059442;28;20033;-71
2022/03/22 07:53:45;;;;;;;41.63;30.02;;;;;;;9.79;100.00;103008.78;5055651;28;20035;-71
2022/03/22 07:56:11;;;;;;;41.83;29.88;;;;;;;9.95;100.00;103003.28;5053435;28;20021;-71
2022/03/22 07:58:37;;;;;;;40.03;29.58;;;;;;;10.20;100.00;103011.34;5050609;28;20507;-71
2022/03/22 08:01:02;;;;;;;40.17;29.58;;;;;;;10.38;100.00;103012.09;5053253;28;20025;-69
2022/03/22 08:03:28;;;;;;;40.35;29.00;;;;;;;10.53;100.00;103016.16;5036794;28;20024;-71
2022/03/22 08:05:53;;;;;;;39.97;28.85;;;;;;;10.66;100.00;103002.59;5056712;28;20029;-71
2022/03/22 08:08:20;;;;;;;41.10;29.40;;;;;;;10.81;100.00;103016.41;5058168;28;20025;-72
2022/03/22 08:10:45;;;;;;;38.50;28.23;;;;;;;11.00;98.72;103001.22;5052092;28;20063;-68
2022/03/22 08:13:12;;;;;;;40.63;28.77;;;;;;;11.20;97.89;103017.84;5054527;28;20033;-66
2022/03/22 08:15:38;;;;;;;38.95;27.90;;;;;;;11.29;93.86;103011.97;5055484;28;20032;-68
2022/03/22 08:18:05;;;;;;;40.67;28.48;;;;;;;11.46;92.63;103018.75;5055114;28;20029;-65
2022/03/22 08:20:30;;;;;;;41.38;27.85;;;;;;;11.62;94.08;103024.56;5050162;28;20103;-67
2022/03/22 08:23:03;;;;;;;39.72;28.25;;;;;;;11.80;93.25;103017.25;5056097;28;20571;-66
2022/03/22 08:25:40;;;;;;;39.70;27.77;;;;;;;12.10;91.17;103021.84;5053477;28;20052;-66
2022/03/22 08:28:07;;;;;;;41.00;28.33;;;;;;;12.37;86.91;103023.56;5054560;28;20027;-67
2022/03/22 08:30:34;;;;;;;40.05;28.00;;;;;;;12.62;82.98;103013.69;5051400;28;20142;-66
2022/03/22 08:33:11;;;;;;;37.38;27.02;;;;;;;12.87;79.81;103024.22;5056372;28;20028;-66
2022/03/22 08:35:41;;;;;;;40.10;27.27;;;;;;;13.10;80.08;103020.41;5049780;28;20028;-66
2022/03/22 08:38:08;;;;;;;41.92;27.95;;;;;;;13.33;76.26;103018.41;5052330;28;20037;-66
2022/03/22 08:40:34;;;;;;;37.80;26.58;;;;;;;13.47;74.47;103021.44;5051493;28;20032;-64
2022/03/22 08:42:59;;;;;;;39.97;27.98;;;;;;;13.64;73.55;103019.25;5054091;28;20033;-64
2022/03/22 08:45:27;;;;;;;42.40;28.20;;;;;;;13.76;72.19;103014.22;5054435;28;20044;-66
2022/03/22 08:47:54;;;;;;;39.25;27.75;;;;;;;13.80;73.71;103016.13;5053394;28;20031;-66
2022/03/22 08:50:22;;;;;;;39.55;27.83;;;;;;;13.89;72.90;103020.75;5053495;28;20039;-66
2022/03/22 08:52:49;;;;;;;40.03;28.10;;;;;;;14.02;71.92;103020.19;5050409;28;20105;-67
2022/03/22 08:55:17;;;;;;;40.50;28.00;;;;;;;14.33;70.04;103017.38;5058238;28;20021;-66
2022/03/22 08:57:44;;;;;;;38.50;26.88;;;;;;;14.71;64.84;103020.03;5063713;28;20120;-65
2022/03/22 09:00:11;;;;;;;39.75;26.30;;;;;;;15.02;63.19;103023.38;5061944;28;20029;-66
2022/03/22 09:02:42;;;;;;;37.30;25.48;;;;;;;15.04;60.68;103016.28;5062464;28;20033;-66
2022/03/22 09:07:56;;;;;;;38.42;27.08;;;;;;;15.57;61.69;103016.44;5057233;28;20028;-67
2022/03/22 09:10:21;;;;;;;38.30;26.42;;;;;;;15.77;56.54;103024.78;5064034;28;20063;-66
2022/03/22 09:12:48;;;;;;;38.88;26.33;;;;;;;16.24;54.94;103012.19;5056582;28;20056;-66
2022/03/22 09:15:18;;;;;;;39.17;26.70;;;;;;;16.53;44.99;103013.53;5064146;28;20032;-66
2022/03/22 09:17:44;;;;;;;37.58;25.15;;;;;;;17.00;44.10;103019.50;5065010;28;20021;-66
2022/03/22 09:20:13;;;;;;;38.42;25.77;;;;;;;17.54;44.05;103014.72;5067451;28;20025;-66
2022/03/22 09:22:44;;;;;;;37.05;25.38;;;;;;;18.01;43.50;103010.72;5059842;28;20519;-68
2022/03/22 09:25:13;;;;;;;38.00;26.05;;;;;;;18.41;41.02;103014.56;5055365;28;20110;-67
2022/03/22 09:27:38;;;;;;;35.30;24.13;;;;;;;18.57;38.03;102996.78;5059490;28;20025;-67
2022/03/22 09:30:05;;;;;;;37.38;25.05;;;;;;;18.94;36.24;103013.03;5051649;28;20063;-68
2022/03/22 09:32:31;;;;;;;35.38;24.80;;;;;;;19.32;36.22;103006.00;5056801;28;20558;-68
2022/03/22 09:34:59;;;;;;;35.30;24.95;;;;;;;19.48;36.50;103004.22;5051765;28;20116;-66
2022/03/22 09:37:27;;;;;;;35.38;24.55;;;;;;;19.82;35.06;103007.88;5057225;28;20075;-68
2022/03/22 09:39:53;;;;;;;36.80;24.45;;;;;;;20.01;35.04;102995.34;5057908;28;20051;-69
2022/03/22 09:42:19;;;;;;;35.53;25.38;;;;;;;20.38;34.87;103005.09;5060238;28;20037;-67
2022/03/22 09:44:48;;;;;;;39.97;25.92;;;;;;;20.80;33.55;103011.25;5055879;28;20025;-69
2022/03/22 09:47:14;;;;;;;37.03;24.95;;;;;;;21.03;33.55;103007.56;5054271;28;20094;-70
2022/03/22 09:49:40;;;;;;;35.20;23.90;;;;;;;21.41;32.62;103004.63;5057306;28;20092;-71
2022/03/22 09:52:06;;;;;;;37.47;25.05;;;;;;;21.70;32.14;103003.56;5060047;28;20498;-69
2022/03/22 09:54:32;;;;;;;34.28;24.65;;;;;;;22.22;30.81;103007.56;5057657;28;20029;-66
2022/03/22 09:56:57;;;;;;;33.88;23.50;;;;;;;22.52;29.69;103000.06;5058558;28;20028;-68
2022/03/22 09:59:23;;;;;;;36.63;23.55;;;;;;;22.51;30.04;103002.78;5057258;28;20028;-67
2022/03/22 10:01:48;;;;;;;36.33;24.85;;;;;;;22.72;30.04;102998.94;5057257;28;20116;-66
2022/03/22 10:04:15;;;;;;;34.72;23.83;;;;;;;23.15;28.59;103003.75;5055402;28;20082;-67
2022/03/22 10:06:46;;;;;;;34.88;23.30;;;;;;;23.48;28.97;102998.78;5054817;28;20031;-68
2022/03/22 10:09:12;;;;;;;36.78;24.10;;;;;;;23.84;27.80;102993.69;5058620;28;20097;-66
2022/03/22 10:11:40;;;;;;;34.55;22.77;;;;;;;24.24;27.20;103001.06;5059531;28;20016;-65
2022/03/22 10:14:08;;;;;;;34.95;22.98;;;;;;;24.53;26.53;102995.06;5050995;28;20052;-67
2022/03/22 10:16:52;;;;;;;35.40;24.02;;;;;;;24.82;27.35;102992.72;5058518;28;20103;-69
2022/03/22 10:19:19;;;;;;;35.78;23.80;;;;;;;25.08;25.94;103002.03;5058042;28;20033;-70
2022/03/22 10:21:45;;;;;;;36.45;23.67;;;;;;;25.63;24.76;102984.53;5056519;28;20064;-65
2022/03/22 10:24:14;;;;;;;34.83;23.80;;;;;;;25.92;24.58;102986.47;5056855;28;20029;-70
2022/03/22 10:26:40;;;;;;;34.00;22.70;;;;;;;26.06;24.20;102983.41;5050203;28;20042;-68
2022/03/22 10:29:07;;;;;;;34.60;23.05;;;;;;;26.08;23.98;102980.66;5056967;28;20115;-68
2022/03/22 10:31:38;;;;;;;35.10;23.27;;;;;;;26.53;24.37;102987.50;5054950;28;20025;-68
2022/03/22 10:34:03;;;;;;;34.97;22.73;;;;;;;27.09;22.67;102981.34;5056838;28;20079;-66
2022/03/22 10:36:42;;;;;;;34.15;22.27;;;;;;;27.54;23.30;102983.50;5057371;28;20020;-66
2022/03/22 10:39:09;;;;;;;33.95;21.63;;;;;;;27.38;22.61;102988.56;5057124;28;20059;-68
2022/03/22 10:41:42;;;;;;;34.33;22.13;;;;;;;27.39;22.74;102978.56;5051858;28;20503;-68
2022/03/22 10:44:13;;;;;;;33.72;21.27;;;;;;;27.80;22.38;102973.53;5049108;28;20029;-66
2022/03/22 10:46:38;;;;;;;33.83;22.23;;;;;;;28.23;21.23;102976.59;5052860;28;20028;-66
2022/03/22 10:49:07;;;;;;;32.33;21.65;;;;;;;28.44;21.92;102973.06;5053483;28;20108;-66
2022/03/22 10:51:52;;;;;;;33.42;21.23;;;;;;;28.82;22.57;102973.44;5050546;28;20475;-66
2022/03/22 10:54:19;;;;;;;31.92;20.70;;;;;;;28.78;21.07;102974.50;5057030;28;20102;-68
2022/03/22 10:56:50;;;;;;;33.45;20.80;;;;;;;29.07;21.25;102969.72;5063973;28;20025;-67
2022/03/22 10:59:18;;;;;;;35.83;20.73;;;;;;;29.27;20.39;102971.66;5064685;28;20067;-67
2022/03/22 11:01:45;;;;;;;30.67;19.77;;;;;;;29.67;20.12;102963.63;5063811;28;20299;-68
2022/03/22 11:04:15;;;;;;;32.22;19.77;;;;;;;29.18;19.89;102970.19;5065572;28;20028;-67
2022/03/22 11:06:41;;;;;;;32.08;20.02;;;;;;;29.20;20.44;102964.66;5063386;28;20372;-67
2022/03/22 11:09:07;;;;;;;31.50;19.85;;;;;;;29.52;20.08;102966.06;5065745;28;20028;-66
2022/03/22 11:11:33;;;;;;;31.92;20.13;;;;;;;29.69;19.48;102972.59;5062659;28;20119;-67
2022/03/22 11:14:00;;;;;;;31.48;21.25;;;;;;;29.73;19.47;102963.34;5066189;28;20063;-67
2022/03/22 11:16:28;;;;;;;31.10;20.15;;;;;;;30.31;18.98;102959.00;5063266;28;20441;-67
2022/03/22 11:18:59;;;;;;;32.40;20.80;;;;;;;29.72;19.21;102950.66;5064840;28;20065;-67
2022/03/22 11:21:26;;;;;;;30.02;18.95;;;;;;;29.23;20.15;102958.22;5062846;28;20028;-66
2022/03/22 11:24:03;;;;;;;33.15;19.60;;;;;;;29.95;20.10;102963.31;5064865;28;20033;-67
2022/03/22 11:26:28;;;;;;;30.73;19.00;;;;;;;29.88;19.65;102950.91;5062261;28;20033;-67
2022/03/22 11:28:54;;;;;;;30.55;18.80;;;;;;;29.65;19.41;102951.88;5064767;28;20035;-67
2022/03/22 11:31:24;;;;;;;29.17;18.23;;;;;;;29.35;19.20;102952.28;5063563;28;20029;-67